sensor_id;sensor_type;location;lat;lon;timestamp;P1;P2;P0
46681;PMS5003;34101;53.430;-2.224;2023-09-19T00:01:51;1;1;
46681;PMS5003;34101;53.430;-2.224;2023-09-19T00:04:19;3;3;
46681;PMS5003;34101;53.430;-2.224;2023-09-19T00:06:49;1;1;
46681;PMS5003;34101;53.430;-2.224;2023-09-19T00:09:17;3;2;
46681;PMS5003;34101;53.430;-2.224;2023-09-19T00:11:45;0;0;
46681;PMS5003;34101;53.430;-2.224;2023-09-19T00:14:14;1;1;
46681;PMS5003;34101;53.430;-2.224;2023-09-19T00:16:42;3;2;
46681;PMS5003;34101;53.430;-2.224;2023-09-19T00:19:10;3;2;
46681;PMS5003;34101;53.430;-2.224;2023-09-19T00:21:38;3;2;
46681;PMS5003;34101;53.430;-2.224;2023-09-19T00:24:08;5;2;
46681;PMS5003;34101;53.430;-2.224;2023-09-19T00:26:37;2;1;
46681;PMS5003;34101;53.430;-2.224;2023-09-19T00:29:05;0;0;
46681;PMS5003;34101;53.430;-2.224;2023-09-19T00:31:33;2;2;
46681;PMS5003;34101;53.430;-2.224;2023-09-19T00:34:03;1;1;
46681;PMS5003;34101;53.430;-2.224;2023-09-19T00:36:31;2;1;
46681;PMS5003;34101;53.430;-2.224;2023-09-19T00:39:00;0;0;
46681;PMS5003;34101;53.430;-2.224;2023-09-19T00:41:28;1;1;
46681;PMS5003;34101;53.430;-2.224;2023-09-19T00:43:56;5;2;
46681;PMS5003;34101;53.430;-2.224;2023-09-19T00:46:24;6;3;
46681;PMS5003;34101;53.430;-2.224;2023-09-19T00:48:53;1;1;
46681;PMS5003;34101;53.430;-2.224;2023-09-19T00:51:21;2;2;
46681;PMS5003;34101;53.430;-2.224;2023-09-19T00:53:51;3;1;
46681;PMS5003;34101;53.430;-2.224;2023-09-19T00:56:19;0;0;
46681;PMS5003;34101;53.430;-2.224;2023-09-19T00:58:47;1;1;
46681;PMS5003;34101;53.430;-2.224;2023-09-19T01:01:16;2;2;
46681;PMS5003;34101;53.430;-2.224;2023-09-19T01:03:49;3;3;
46681;PMS5003;34101;53.430;-2.224;2023-09-19T01:06:17;2;2;
46681;PMS5003;34101;53.430;-2.224;2023-09-19T01:08:47;2;2;
46681;PMS5003;34101;53.430;-2.224;2023-09-19T01:11:16;1;1;
46681;PMS5003;34101;53.430;-2.224;2023-09-19T01:13:52;3;3;
46681;PMS5003;34101;53.430;-2.224;2023-09-19T01:16:31;1;1;
46681;PMS5003;34101;53.430;-2.224;2023-09-19T01:19:07;4;1;
46681;PMS5003;34101;53.430;-2.224;2023-09-19T01:21:56;2;1;
46681;PMS5003;34101;53.430;-2.224;2023-09-19T01:27:36;4;3;
46681;PMS5003;34101;53.430;-2.224;2023-09-19T01:30:33;4;4;
46681;PMS5003;34101;53.430;-2.224;2023-09-19T01:33:07;5;3;
46681;PMS5003;34101;53.430;-2.224;2023-09-19T01:35:35;2;2;
46681;PMS5003;34101;53.430;-2.224;2023-09-19T01:38:05;2;1;
46681;PMS5003;34101;53.430;-2.224;2023-09-19T01:40:33;1;1;
46681;PMS5003;34101;53.430;-2.224;2023-09-19T01:43:09;1;1;
46681;PMS5003;34101;53.430;-2.224;2023-09-19T01:45:50;1;1;
46681;PMS5003;34101;53.430;-2.224;2023-09-19T01:48:25;3;2;
46681;PMS5003;34101;53.430;-2.224;2023-09-19T01:51:05;3;2;
46681;PMS5003;34101;53.430;-2.224;2023-09-19T01:53:41;4;2;
46681;PMS5003;34101;53.430;-2.224;2023-09-19T01:56:16;1;1;
46681;PMS5003;34101;53.430;-2.224;2023-09-19T01:58:51;2;2;
46681;PMS5003;34101;53.430;-2.224;2023-09-19T02:01:26;3;1;
46681;PMS5003;34101;53.430;-2.224;2023-09-19T02:03:55;3;1;
46681;PMS5003;34101;53.430;-2.224;2023-09-19T02:06:24;1;1;
46681;PMS5003;34101;53.430;-2.224;2023-09-19T02:08:53;1;1;
46681;PMS5003;34101;53.430;-2.224;2023-09-19T02:11:21;3;2;
46681;PMS5003;34101;53.430;-2.224;2023-09-19T02:13:49;5;2;
46681;PMS5003;34101;53.430;-2.224;2023-09-19T02:16:18;3;3;
46681;PMS5003;34101;53.430;-2.224;2023-09-19T02:18:46;7;2;
46681;PMS5003;34101;53.430;-2.224;2023-09-19T02:21:14;4;3;
46681;PMS5003;34101;53.430;-2.224;2023-09-19T02:23:42;3;3;
46681;PMS5003;34101;53.430;-2.224;2023-09-19T02:26:10;1;1;
46681;PMS5003;34101;53.430;-2.224;2023-09-19T02:28:39;2;2;
46681;PMS5003;34101;53.430;-2.224;2023-09-19T02:31:08;2;2;
46681;PMS5003;34101;53.430;-2.224;2023-09-19T02:33:36;4;2;
46681;PMS5003;34101;53.430;-2.224;2023-09-19T02:36:03;3;1;
46681;PMS5003;34101;53.430;-2.224;2023-09-19T02:38:32;6;3;
46681;PMS5003;34101;53.430;-2.224;2023-09-19T02:41:00;3;2;
46681;PMS5003;34101;53.430;-2.224;2023-09-19T02:43:28;3;1;
46681;PMS5003;34101;53.430;-2.224;2023-09-19T02:45:56;5;3;
46681;PMS5003;34101;53.430;-2.224;2023-09-19T02:48:24;4;4;
46681;PMS5003;34101;53.430;-2.224;2023-09-19T02:50:52;2;2;
46681;PMS5003;34101;53.430;-2.224;2023-09-19T02:53:20;2;2;
46681;PMS5003;34101;53.430;-2.224;2023-09-19T02:55:47;2;2;
46681;PMS5003;34101;53.430;-2.224;2023-09-19T02:58:15;8;4;
46681;PMS5003;34101;53.430;-2.224;2023-09-19T03:00:42;4;4;
46681;PMS5003;34101;53.430;-2.224;2023-09-19T03:03:10;9;3;
46681;PMS5003;34101;53.430;-2.224;2023-09-19T03:05:39;6;3;
46681;PMS5003;34101;53.430;-2.224;2023-09-19T03:08:07;3;3;
46681;PMS5003;34101;53.430;-2.224;2023-09-19T03:10:34;6;5;
46681;PMS5003;34101;53.430;-2.224;2023-09-19T03:13:02;4;2;
46681;PMS5003;34101;53.430;-2.224;2023-09-19T03:15:30;4;3;
46681;PMS5003;34101;53.430;-2.224;2023-09-19T03:17:58;5;3;
46681;PMS5003;34101;53.430;-2.224;2023-09-19T03:20:25;6;5;
46681;PMS5003;34101;53.430;-2.224;2023-09-19T03:22:54;5;3;
46681;PMS5003;34101;53.430;-2.224;2023-09-19T03:25:22;2;2;
46681;PMS5003;34101;53.430;-2.224;2023-09-19T03:27:50;2;2;
46681;PMS5003;34101;53.430;-2.224;2023-09-19T03:30:18;2;2;
46681;PMS5003;34101;53.430;-2.224;2023-09-19T03:32:46;4;2;
46681;PMS5003;34101;53.430;-2.224;2023-09-19T03:35:14;4;2;
46681;PMS5003;34101;53.430;-2.224;2023-09-19T03:37:41;4;2;
46681;PMS5003;34101;53.430;-2.224;2023-09-19T03:40:09;3;3;
46681;PMS5003;34101;53.430;-2.224;2023-09-19T03:42:38;6;3;
46681;PMS5003;34101;53.430;-2.224;2023-09-19T03:45:06;5;2;
46681;PMS5003;34101;53.430;-2.224;2023-09-19T03:47:33;4;3;
46681;PMS5003;34101;53.430;-2.224;2023-09-19T03:50:01;2;2;
46681;PMS5003;34101;53.430;-2.224;2023-09-19T03:52:29;3;2;
46681;PMS5003;34101;53.430;-2.224;2023-09-19T03:54:57;3;2;
46681;PMS5003;34101;53.430;-2.224;2023-09-19T03:57:25;6;3;
46681;PMS5003;34101;53.430;-2.224;2023-09-19T03:59:52;4;4;
46681;PMS5003;34101;53.430;-2.224;2023-09-19T04:02:20;4;3;
46681;PMS5003;34101;53.430;-2.224;2023-09-19T04:04:54;4;3;
46681;PMS5003;34101;53.430;-2.224;2023-09-19T04:07:22;5;3;
46681;PMS5003;34101;53.430;-2.224;2023-09-19T04:09:49;2;2;
46681;PMS5003;34101;53.430;-2.224;2023-09-19T04:12:17;7;4;
46681;PMS5003;34101;53.430;-2.224;2023-09-19T04:14:46;4;2;
46681;PMS5003;34101;53.430;-2.224;2023-09-19T04:17:13;8;5;
46681;PMS5003;34101;53.430;-2.224;2023-09-19T04:19:41;5;3;
46681;PMS5003;34101;53.430;-2.224;2023-09-19T04:22:08;2;2;
46681;PMS5003;34101;53.430;-2.224;2023-09-19T04:24:35;3;2;
46681;PMS5003;34101;53.430;-2.224;2023-09-19T04:27:03;2;2;
46681;PMS5003;34101;53.430;-2.224;2023-09-19T04:29:31;3;3;
46681;PMS5003;34101;53.430;-2.224;2023-09-19T04:31:59;2;2;
46681;PMS5003;34101;53.430;-2.224;2023-09-19T04:34:26;5;2;
46681;PMS5003;34101;53.430;-2.224;2023-09-19T04:36:54;8;5;
46681;PMS5003;34101;53.430;-2.224;2023-09-19T04:39:21;4;4;
46681;PMS5003;34101;53.430;-2.224;2023-09-19T04:41:49;4;3;
46681;PMS5003;34101;53.430;-2.224;2023-09-19T04:44:16;2;2;
46681;PMS5003;34101;53.430;-2.224;2023-09-19T04:46:43;4;2;
46681;PMS5003;34101;53.430;-2.224;2023-09-19T04:49:11;4;4;
46681;PMS5003;34101;53.430;-2.224;2023-09-19T04:51:38;3;2;
46681;PMS5003;34101;53.430;-2.224;2023-09-19T04:54:06;3;3;
46681;PMS5003;34101;53.430;-2.224;2023-09-19T04:56:34;4;2;
46681;PMS5003;34101;53.430;-2.224;2023-09-19T04:59:01;2;2;
46681;PMS5003;34101;53.430;-2.224;2023-09-19T05:01:29;4;3;
46681;PMS5003;34101;53.430;-2.224;2023-09-19T05:03:56;3;3;
46681;PMS5003;34101;53.430;-2.224;2023-09-19T05:06:23;2;1;
46681;PMS5003;34101;53.430;-2.224;2023-09-19T05:08:51;5;3;
46681;PMS5003;34101;53.430;-2.224;2023-09-19T05:11:19;4;2;
46681;PMS5003;34101;53.430;-2.224;2023-09-19T05:13:46;2;2;
46681;PMS5003;34101;53.430;-2.224;2023-09-19T05:16:13;3;2;
46681;PMS5003;34101;53.430;-2.224;2023-09-19T05:18:41;2;2;
46681;PMS5003;34101;53.430;-2.224;2023-09-19T05:21:08;3;3;
46681;PMS5003;34101;53.430;-2.224;2023-09-19T05:23:35;6;4;
46681;PMS5003;34101;53.430;-2.224;2023-09-19T05:26:03;2;2;
46681;PMS5003;34101;53.430;-2.224;2023-09-19T05:28:30;2;1;
46681;PMS5003;34101;53.430;-2.224;2023-09-19T05:31:00;2;1;
46681;PMS5003;34101;53.430;-2.224;2023-09-19T05:33:27;3;3;
46681;PMS5003;34101;53.430;-2.224;2023-09-19T05:35:55;3;2;
46681;PMS5003;34101;53.430;-2.224;2023-09-19T05:38:22;4;1;
46681;PMS5003;34101;53.430;-2.224;2023-09-19T05:40:49;4;4;
46681;PMS5003;34101;53.430;-2.224;2023-09-19T05:43:16;4;3;
46681;PMS5003;34101;53.430;-2.224;2023-09-19T05:45:44;3;3;
46681;PMS5003;34101;53.430;-2.224;2023-09-19T05:48:12;5;2;
46681;PMS5003;34101;53.430;-2.224;2023-09-19T05:50:41;7;4;
46681;PMS5003;34101;53.430;-2.224;2023-09-19T05:53:08;4;3;
46681;PMS5003;34101;53.430;-2.224;2023-09-19T05:55:35;3;3;
46681;PMS5003;34101;53.430;-2.224;2023-09-19T05:58:03;3;3;
46681;PMS5003;34101;53.430;-2.224;2023-09-19T06:00:30;5;2;
46681;PMS5003;34101;53.430;-2.224;2023-09-19T06:02:58;5;4;
46681;PMS5003;34101;53.430;-2.224;2023-09-19T06:05:26;4;3;
46681;PMS5003;34101;53.430;-2.224;2023-09-19T06:07:54;3;2;
46681;PMS5003;34101;53.430;-2.224;2023-09-19T06:10:23;6;3;
46681;PMS5003;34101;53.430;-2.224;2023-09-19T06:12:51;4;4;
46681;PMS5003;34101;53.430;-2.224;2023-09-19T06:15:18;5;3;
46681;PMS5003;34101;53.430;-2.224;2023-09-19T06:17:46;2;2;
46681;PMS5003;34101;53.430;-2.224;2023-09-19T06:20:15;3;3;
46681;PMS5003;34101;53.430;-2.224;2023-09-19T06:22:43;5;3;
46681;PMS5003;34101;53.430;-2.224;2023-09-19T06:25:12;3;3;
46681;PMS5003;34101;53.430;-2.224;2023-09-19T06:27:40;3;2;
46681;PMS5003;34101;53.430;-2.224;2023-09-19T06:30:08;2;2;
46681;PMS5003;34101;53.430;-2.224;2023-09-19T06:32:37;3;3;
46681;PMS5003;34101;53.430;-2.224;2023-09-19T06:35:05;5;3;
46681;PMS5003;34101;53.430;-2.224;2023-09-19T06:37:32;5;5;
46681;PMS5003;34101;53.430;-2.224;2023-09-19T06:39:59;3;3;
46681;PMS5003;34101;53.430;-2.224;2023-09-19T06:42:27;3;2;
46681;PMS5003;34101;53.430;-2.224;2023-09-19T06:44:54;4;4;
46681;PMS5003;34101;53.430;-2.224;2023-09-19T06:47:22;4;4;
46681;PMS5003;34101;53.430;-2.224;2023-09-19T06:49:49;5;5;
46681;PMS5003;34101;53.430;-2.224;2023-09-19T06:52:16;2;2;
46681;PMS5003;34101;53.430;-2.224;2023-09-19T06:54:44;3;2;
46681;PMS5003;34101;53.430;-2.224;2023-09-19T06:57:11;3;3;
46681;PMS5003;34101;53.430;-2.224;2023-09-19T06:59:39;3;3;
46681;PMS5003;34101;53.430;-2.224;2023-09-19T07:02:06;3;3;
46681;PMS5003;34101;53.430;-2.224;2023-09-19T07:04:33;2;2;
46681;PMS5003;34101;53.430;-2.224;2023-09-19T07:07:01;4;4;
46681;PMS5003;34101;53.430;-2.224;2023-09-19T07:09:28;3;3;
46681;PMS5003;34101;53.430;-2.224;2023-09-19T07:12:01;3;3;
46681;PMS5003;34101;53.430;-2.224;2023-09-19T07:14:28;7;6;
46681;PMS5003;34101;53.430;-2.224;2023-09-19T07:16:56;2;2;
46681;PMS5003;34101;53.430;-2.224;2023-09-19T07:19:24;4;4;
46681;PMS5003;34101;53.430;-2.224;2023-09-19T07:21:57;5;3;
46681;PMS5003;34101;53.430;-2.224;2023-09-19T07:24:24;6;5;
46681;PMS5003;34101;53.430;-2.224;2023-09-19T07:26:51;3;3;
46681;PMS5003;34101;53.430;-2.224;2023-09-19T07:29:20;7;6;
46681;PMS5003;34101;53.430;-2.224;2023-09-19T07:31:48;5;4;
46681;PMS5003;34101;53.430;-2.224;2023-09-19T07:34:15;5;5;
46681;PMS5003;34101;53.430;-2.224;2023-09-19T07:36:43;7;6;
46681;PMS5003;34101;53.430;-2.224;2023-09-19T07:39:10;4;4;
46681;PMS5003;34101;53.430;-2.224;2023-09-19T07:41:37;5;4;
46681;PMS5003;34101;53.430;-2.224;2023-09-19T07:44:05;5;5;
46681;PMS5003;34101;53.430;-2.224;2023-09-19T07:46:33;5;4;
46681;PMS5003;34101;53.430;-2.224;2023-09-19T07:49:01;6;5;
46681;PMS5003;34101;53.430;-2.224;2023-09-19T07:51:28;2;2;
46681;PMS5003;34101;53.430;-2.224;2023-09-19T07:53:57;5;4;
46681;PMS5003;34101;53.430;-2.224;2023-09-19T07:56:25;4;4;
46681;PMS5003;34101;53.430;-2.224;2023-09-19T07:58:52;4;3;
46681;PMS5003;34101;53.430;-2.224;2023-09-19T08:01:20;3;2;
46681;PMS5003;34101;53.430;-2.224;2023-09-19T08:03:47;2;2;
46681;PMS5003;34101;53.430;-2.224;2023-09-19T08:06:14;3;3;
46681;PMS5003;34101;53.430;-2.224;2023-09-19T08:08:42;2;2;
46681;PMS5003;34101;53.430;-2.224;2023-09-19T08:11:09;3;3;
46681;PMS5003;34101;53.430;-2.224;2023-09-19T08:13:37;3;3;
46681;PMS5003;34101;53.430;-2.224;2023-09-19T08:16:09;2;1;
46681;PMS5003;34101;53.430;-2.224;2023-09-19T08:18:37;4;2;
46681;PMS5003;34101;53.430;-2.224;2023-09-19T08:21:06;1;1;
46681;PMS5003;34101;53.430;-2.224;2023-09-19T08:23:34;2;2;
46681;PMS5003;34101;53.430;-2.224;2023-09-19T08:26:02;2;2;
46681;PMS5003;34101;53.430;-2.224;2023-09-19T08:28:31;3;1;
46681;PMS5003;34101;53.430;-2.224;2023-09-19T08:31:01;1;1;
46681;PMS5003;34101;53.430;-2.224;2023-09-19T08:33:30;2;2;
46681;PMS5003;34101;53.430;-2.224;2023-09-19T08:35:58;3;1;
46681;PMS5003;34101;53.430;-2.224;2023-09-19T08:38:27;1;1;
46681;PMS5003;34101;53.430;-2.224;2023-09-19T08:40:55;0;0;
46681;PMS5003;34101;53.430;-2.224;2023-09-19T08:43:25;1;1;
46681;PMS5003;34101;53.430;-2.224;2023-09-19T08:45:54;1;1;
46681;PMS5003;34101;53.430;-2.224;2023-09-19T08:48:32;0;0;
46681;PMS5003;34101;53.430;-2.224;2023-09-19T08:51:06;1;1;
46681;PMS5003;34101;53.430;-2.224;2023-09-19T08:53:40;2;0;
46681;PMS5003;34101;53.430;-2.224;2023-09-19T08:56:13;0;0;
46681;PMS5003;34101;53.430;-2.224;2023-09-19T08:58:46;0;0;
46681;PMS5003;34101;53.430;-2.224;2023-09-19T09:01:17;1;1;
46681;PMS5003;34101;53.430;-2.224;2023-09-19T09:03:45;1;1;
46681;PMS5003;34101;53.430;-2.224;2023-09-19T09:06:15;0;0;
46681;PMS5003;34101;53.430;-2.224;2023-09-19T09:08:44;0;0;
46681;PMS5003;34101;53.430;-2.224;2023-09-19T09:11:13;0;0;
46681;PMS5003;34101;53.430;-2.224;2023-09-19T09:13:41;0;0;
46681;PMS5003;34101;53.430;-2.224;2023-09-19T09:16:10;0;0;
46681;PMS5003;34101;53.430;-2.224;2023-09-19T09:18:37;0;0;
46681;PMS5003;34101;53.430;-2.224;2023-09-19T09:21:05;0;0;
46681;PMS5003;34101;53.430;-2.224;2023-09-19T09:23:33;0;0;
46681;PMS5003;34101;53.430;-2.224;2023-09-19T09:26:00;0;0;
46681;PMS5003;34101;53.430;-2.224;2023-09-19T09:28:28;0;0;
46681;PMS5003;34101;53.430;-2.224;2023-09-19T09:30:56;0;0;
46681;PMS5003;34101;53.430;-2.224;2023-09-19T09:33:24;0;0;
46681;PMS5003;34101;53.430;-2.224;2023-09-19T09:35:53;0;0;
46681;PMS5003;34101;53.430;-2.224;2023-09-19T09:38:22;0;0;
46681;PMS5003;34101;53.430;-2.224;2023-09-19T09:40:52;0;0;
46681;PMS5003;34101;53.430;-2.224;2023-09-19T09:43:25;0;0;
46681;PMS5003;34101;53.430;-2.224;2023-09-19T09:46:06;0;0;
46681;PMS5003;34101;53.430;-2.224;2023-09-19T09:48:36;0;0;
46681;PMS5003;34101;53.430;-2.224;2023-09-19T09:51:03;0;0;
46681;PMS5003;34101;53.430;-2.224;2023-09-19T09:53:31;0;0;
46681;PMS5003;34101;53.430;-2.224;2023-09-19T09:55:59;0;0;
46681;PMS5003;34101;53.430;-2.224;2023-09-19T09:58:27;0;0;
46681;PMS5003;34101;53.430;-2.224;2023-09-19T10:00:55;0;0;
46681;PMS5003;34101;53.430;-2.224;2023-09-19T10:03:30;0;0;
46681;PMS5003;34101;53.430;-2.224;2023-09-19T10:05:58;0;0;
46681;PMS5003;34101;53.430;-2.224;2023-09-19T10:08:26;0;0;
46681;PMS5003;34101;53.430;-2.224;2023-09-19T10:10:54;0;0;
46681;PMS5003;34101;53.430;-2.224;2023-09-19T10:13:21;0;0;
46681;PMS5003;34101;53.430;-2.224;2023-09-19T10:15:52;0;0;
46681;PMS5003;34101;53.430;-2.224;2023-09-19T10:18:22;0;0;
46681;PMS5003;34101;53.430;-2.224;2023-09-19T10:20:51;0;0;
46681;PMS5003;34101;53.430;-2.224;2023-09-19T10:23:19;1;0;
46681;PMS5003;34101;53.430;-2.224;2023-09-19T10:25:48;0;0;
46681;PMS5003;34101;53.430;-2.224;2023-09-19T10:28:16;0;0;
46681;PMS5003;34101;53.430;-2.224;2023-09-19T10:30:46;0;0;
46681;PMS5003;34101;53.430;-2.224;2023-09-19T10:33:16;0;0;
46681;PMS5003;34101;53.430;-2.224;2023-09-19T10:35:44;0;0;
46681;PMS5003;34101;53.430;-2.224;2023-09-19T10:38:13;0;0;
46681;PMS5003;34101;53.430;-2.224;2023-09-19T10:40:44;0;0;
46681;PMS5003;34101;53.430;-2.224;2023-09-19T10:43:25;0;0;
46681;PMS5003;34101;53.430;-2.224;2023-09-19T10:46:00;0;0;
46681;PMS5003;34101;53.430;-2.224;2023-09-19T10:48:28;0;0;
46681;PMS5003;34101;53.430;-2.224;2023-09-19T10:50:57;0;0;
46681;PMS5003;34101;53.430;-2.224;2023-09-19T10:53:29;0;0;
46681;PMS5003;34101;53.430;-2.224;2023-09-19T10:56:07;0;0;
46681;PMS5003;34101;53.430;-2.224;2023-09-19T10:58:34;0;0;
46681;PMS5003;34101;53.430;-2.224;2023-09-19T11:01:02;0;0;
46681;PMS5003;34101;53.430;-2.224;2023-09-19T11:03:30;0;0;
46681;PMS5003;34101;53.430;-2.224;2023-09-19T11:06:01;0;0;
46681;PMS5003;34101;53.430;-2.224;2023-09-19T11:08:50;0;0;
46681;PMS5003;34101;53.430;-2.224;2023-09-19T11:11:58;0;0;
46681;PMS5003;34101;53.430;-2.224;2023-09-19T11:14:42;0;0;
46681;PMS5003;34101;53.430;-2.224;2023-09-19T11:17:41;1;0;
46681;PMS5003;34101;53.430;-2.224;2023-09-19T11:20:25;0;0;
46681;PMS5003;34101;53.430;-2.224;2023-09-19T11:23:27;0;0;
46681;PMS5003;34101;53.430;-2.224;2023-09-19T11:25:54;0;0;
46681;PMS5003;34101;53.430;-2.224;2023-09-19T11:28:37;0;0;
46681;PMS5003;34101;53.430;-2.224;2023-09-19T11:31:46;0;0;
46681;PMS5003;34101;53.430;-2.224;2023-09-19T11:34:45;0;0;
46681;PMS5003;34101;53.430;-2.224;2023-09-19T11:38:19;1;0;
46681;PMS5003;34101;53.430;-2.224;2023-09-19T11:41:40;0;0;
46681;PMS5003;34101;53.430;-2.224;2023-09-19T11:44:40;0;0;
46681;PMS5003;34101;53.430;-2.224;2023-09-19T11:47:08;0;0;
46681;PMS5003;34101;53.430;-2.224;2023-09-19T11:49:38;0;0;
46681;PMS5003;34101;53.430;-2.224;2023-09-19T11:52:07;2;1;
46681;PMS5003;34101;53.430;-2.224;2023-09-19T11:54:35;0;0;
46681;PMS5003;34101;53.430;-2.224;2023-09-19T11:57:03;0;0;
46681;PMS5003;34101;53.430;-2.224;2023-09-19T11:59:31;0;0;
46681;PMS5003;34101;53.430;-2.224;2023-09-19T12:01:58;0;0;
46681;PMS5003;34101;53.430;-2.224;2023-09-19T12:04:34;1;0;
46681;PMS5003;34101;53.430;-2.224;2023-09-19T12:07:01;0;0;
46681;PMS5003;34101;53.430;-2.224;2023-09-19T12:09:29;0;0;
46681;PMS5003;34101;53.430;-2.224;2023-09-19T12:11:56;0;0;
46681;PMS5003;34101;53.430;-2.224;2023-09-19T12:14:25;1;1;
46681;PMS5003;34101;53.430;-2.224;2023-09-19T12:16:54;0;0;
46681;PMS5003;34101;53.430;-2.224;2023-09-19T12:19:27;0;0;
46681;PMS5003;34101;53.430;-2.224;2023-09-19T12:21:55;0;0;
46681;PMS5003;34101;53.430;-2.224;2023-09-19T12:24:25;1;1;
46681;PMS5003;34101;53.430;-2.224;2023-09-19T12:26:53;0;0;
46681;PMS5003;34101;53.430;-2.224;2023-09-19T12:29:21;0;0;
46681;PMS5003;34101;53.430;-2.224;2023-09-19T12:31:49;0;0;
46681;PMS5003;34101;53.430;-2.224;2023-09-19T12:34:20;0;0;
46681;PMS5003;34101;53.430;-2.224;2023-09-19T12:36:48;0;0;
46681;PMS5003;34101;53.430;-2.224;2023-09-19T12:39:23;0;0;
46681;PMS5003;34101;53.430;-2.224;2023-09-19T12:41:51;2;0;
46681;PMS5003;34101;53.430;-2.224;2023-09-19T12:44:20;0;0;
46681;PMS5003;34101;53.430;-2.224;2023-09-19T12:46:48;0;0;
46681;PMS5003;34101;53.430;-2.224;2023-09-19T12:49:16;0;0;
46681;PMS5003;34101;53.430;-2.224;2023-09-19T12:51:44;0;0;
46681;PMS5003;34101;53.430;-2.224;2023-09-19T12:54:12;0;0;
46681;PMS5003;34101;53.430;-2.224;2023-09-19T12:56:39;1;1;
46681;PMS5003;34101;53.430;-2.224;2023-09-19T12:59:08;0;0;
46681;PMS5003;34101;53.430;-2.224;2023-09-19T13:01:35;0;0;
46681;PMS5003;34101;53.430;-2.224;2023-09-19T13:04:18;0;0;
46681;PMS5003;34101;53.430;-2.224;2023-09-19T13:06:46;1;1;
46681;PMS5003;34101;53.430;-2.224;2023-09-19T13:09:14;0;0;
46681;PMS5003;34101;53.430;-2.224;2023-09-19T13:11:43;0;0;
46681;PMS5003;34101;53.430;-2.224;2023-09-19T13:14:15;2;0;
46681;PMS5003;34101;53.430;-2.224;2023-09-19T13:17:00;0;0;
46681;PMS5003;34101;53.430;-2.224;2023-09-19T13:19:44;2;0;
46681;PMS5003;34101;53.430;-2.224;2023-09-19T13:22:45;0;0;
46681;PMS5003;34101;53.430;-2.224;2023-09-19T13:25:13;0;0;
46681;PMS5003;34101;53.430;-2.224;2023-09-19T13:27:41;0;0;
46681;PMS5003;34101;53.430;-2.224;2023-09-19T13:30:10;0;0;
46681;PMS5003;34101;53.430;-2.224;2023-09-19T13:32:37;0;0;
46681;PMS5003;34101;53.430;-2.224;2023-09-19T13:35:05;0;0;
46681;PMS5003;34101;53.430;-2.224;2023-09-19T13:37:33;0;0;
46681;PMS5003;34101;53.430;-2.224;2023-09-19T13:40:00;0;0;
46681;PMS5003;34101;53.430;-2.224;2023-09-19T13:42:28;0;0;
46681;PMS5003;34101;53.430;-2.224;2023-09-19T13:44:56;1;1;
46681;PMS5003;34101;53.430;-2.224;2023-09-19T13:47:23;0;0;
46681;PMS5003;34101;53.430;-2.224;2023-09-19T13:49:51;2;0;
46681;PMS5003;34101;53.430;-2.224;2023-09-19T13:52:18;1;0;
46681;PMS5003;34101;53.430;-2.224;2023-09-19T13:54:46;0;0;
46681;PMS5003;34101;53.430;-2.224;2023-09-19T13:57:13;0;0;
46681;PMS5003;34101;53.430;-2.224;2023-09-19T13:59:40;1;0;
46681;PMS5003;34101;53.430;-2.224;2023-09-19T14:02:08;0;0;
46681;PMS5003;34101;53.430;-2.224;2023-09-19T14:04:35;1;0;
46681;PMS5003;34101;53.430;-2.224;2023-09-19T14:07:03;0;0;
46681;PMS5003;34101;53.430;-2.224;2023-09-19T14:09:30;1;1;
46681;PMS5003;34101;53.430;-2.224;2023-09-19T14:11:57;0;0;
46681;PMS5003;34101;53.430;-2.224;2023-09-19T14:14:25;3;0;
46681;PMS5003;34101;53.430;-2.224;2023-09-19T14:16:52;2;0;
46681;PMS5003;34101;53.430;-2.224;2023-09-19T14:19:19;0;0;
46681;PMS5003;34101;53.430;-2.224;2023-09-19T14:21:47;1;1;
46681;PMS5003;34101;53.430;-2.224;2023-09-19T14:24:16;1;1;
46681;PMS5003;34101;53.430;-2.224;2023-09-19T14:26:43;1;1;
46681;PMS5003;34101;53.430;-2.224;2023-09-19T14:29:11;6;3;
46681;PMS5003;34101;53.430;-2.224;2023-09-19T14:31:39;3;2;
46681;PMS5003;34101;53.430;-2.224;2023-09-19T14:34:07;2;1;
46681;PMS5003;34101;53.430;-2.224;2023-09-19T14:36:35;4;2;
46681;PMS5003;34101;53.430;-2.224;2023-09-19T14:39:02;2;2;
46681;PMS5003;34101;53.430;-2.224;2023-09-19T14:41:29;1;1;
46681;PMS5003;34101;53.430;-2.224;2023-09-19T14:43:57;4;2;
46681;PMS5003;34101;53.430;-2.224;2023-09-19T14:46:25;3;3;
46681;PMS5003;34101;53.430;-2.224;2023-09-19T14:48:52;5;4;
46681;PMS5003;34101;53.430;-2.224;2023-09-19T14:51:29;7;7;
46681;PMS5003;34101;53.430;-2.224;2023-09-19T14:53:57;5;4;
46681;PMS5003;34101;53.430;-2.224;2023-09-19T14:56:24;3;3;
46681;PMS5003;34101;53.430;-2.224;2023-09-19T14:58:52;8;5;
46681;PMS5003;34101;53.430;-2.224;2023-09-19T15:01:19;6;3;
46681;PMS5003;34101;53.430;-2.224;2023-09-19T15:03:46;5;4;
46681;PMS5003;34101;53.430;-2.224;2023-09-19T15:06:14;3;3;
46681;PMS5003;34101;53.430;-2.224;2023-09-19T15:08:41;4;3;
46681;PMS5003;34101;53.430;-2.224;2023-09-19T15:11:10;3;3;
46681;PMS5003;34101;53.430;-2.224;2023-09-19T15:13:37;3;3;
46681;PMS5003;34101;53.430;-2.224;2023-09-19T15:16:05;3;3;
46681;PMS5003;34101;53.430;-2.224;2023-09-19T15:18:34;2;2;
46681;PMS5003;34101;53.430;-2.224;2023-09-19T15:21:03;5;3;
46681;PMS5003;34101;53.430;-2.224;2023-09-19T15:23:30;2;2;
46681;PMS5003;34101;53.430;-2.224;2023-09-19T15:25:57;4;2;
46681;PMS5003;34101;53.430;-2.224;2023-09-19T15:28:24;4;2;
46681;PMS5003;34101;53.430;-2.224;2023-09-19T15:30:57;6;2;
46681;PMS5003;34101;53.430;-2.224;2023-09-19T15:33:24;3;3;
46681;PMS5003;34101;53.430;-2.224;2023-09-19T15:35:52;4;4;
46681;PMS5003;34101;53.430;-2.224;2023-09-19T15:38:26;5;2;
46681;PMS5003;34101;53.430;-2.224;2023-09-19T15:40:54;2;2;
46681;PMS5003;34101;53.430;-2.224;2023-09-19T15:43:21;3;3;
46681;PMS5003;34101;53.430;-2.224;2023-09-19T15:45:48;3;3;
46681;PMS5003;34101;53.430;-2.224;2023-09-19T15:48:16;3;3;
46681;PMS5003;34101;53.430;-2.224;2023-09-19T15:50:43;4;4;
46681;PMS5003;34101;53.430;-2.224;2023-09-19T15:53:10;3;3;
46681;PMS5003;34101;53.430;-2.224;2023-09-19T15:55:38;6;3;
46681;PMS5003;34101;53.430;-2.224;2023-09-19T15:58:06;4;3;
46681;PMS5003;34101;53.430;-2.224;2023-09-19T16:00:33;5;1;
46681;PMS5003;34101;53.430;-2.224;2023-09-19T16:03:01;3;3;
46681;PMS5003;34101;53.430;-2.224;2023-09-19T16:05:34;3;2;
46681;PMS5003;34101;53.430;-2.224;2023-09-19T16:08:02;2;2;
46681;PMS5003;34101;53.430;-2.224;2023-09-19T16:10:33;5;3;
46681;PMS5003;34101;53.430;-2.224;2023-09-19T16:13:01;2;2;
46681;PMS5003;34101;53.430;-2.224;2023-09-19T16:15:28;4;3;
46681;PMS5003;34101;53.430;-2.224;2023-09-19T16:17:56;4;1;
46681;PMS5003;34101;53.430;-2.224;2023-09-19T16:20:23;2;2;
46681;PMS5003;34101;53.430;-2.224;2023-09-19T16:22:50;2;2;
46681;PMS5003;34101;53.430;-2.224;2023-09-19T16:25:18;4;2;
46681;PMS5003;34101;53.430;-2.224;2023-09-19T16:27:45;5;3;
46681;PMS5003;34101;53.430;-2.224;2023-09-19T16:30:13;4;3;
46681;PMS5003;34101;53.430;-2.224;2023-09-19T16:32:40;0;0;
46681;PMS5003;34101;53.430;-2.224;2023-09-19T16:35:07;3;2;
46681;PMS5003;34101;53.430;-2.224;2023-09-19T16:37:36;2;2;
46681;PMS5003;34101;53.430;-2.224;2023-09-19T16:40:04;1;1;
46681;PMS5003;34101;53.430;-2.224;2023-09-19T16:42:33;5;3;
46681;PMS5003;34101;53.430;-2.224;2023-09-19T16:45:03;1;1;
46681;PMS5003;34101;53.430;-2.224;2023-09-19T16:47:31;5;4;
46681;PMS5003;34101;53.430;-2.224;2023-09-19T16:49:59;2;2;
46681;PMS5003;34101;53.430;-2.224;2023-09-19T16:52:26;5;3;
46681;PMS5003;34101;53.430;-2.224;2023-09-19T16:54:53;2;2;